Latest Weather Observations for Browse Island

IDW60801

Issued at 2:05 pm WST Friday 31 October 2014 (issued every 30 minutes, with the page automatically refreshed every 10 minutes)

About weather observations | Map of weather stations | Latest weather observations for WA | Other Formats
Station Details ID: 200784 Name: BROWSE ISLAND Lat: -14.11 Lon: 123.55 Height: 3.7 m
Data from the previous 72 hours. | See also: Recent months for locations in Western Australia
Date/Time
WST
Temp
°C
App
Temp
°C
Dew
Point
Rel
Hum
%
Delta-T
°C
Wind Press
QNH
hPa
Press
MSL
hPa
Rain
since 9 am
mm
Dir
 
Spd
km/h
Gust
km/h
Spd
kts
Gust
kts
31/02:00pm 30.0 - - - - NW 13 15 7 8 1008.0 1008.2 -
31/01:30pm 30.0 - - - - WNW 13 13 7 7 1008.0 - -
31/01:00pm 30.5 - - - - NW 11 - 6 - 1008.0 1008.4 -
31/12:30pm 30.0 - - - - NW 11 - 6 - 1008.0 - -
31/12:00pm 29.9 - - - - WNW 11 - 6 - 1009.0 1009.0 -
31/11:30am 30.0 - - - - NW 13 - 7 - 1009.0 - -
31/11:00am 29.8 - - - - NNW 11 - 6 - 1009.0 1009.8 -
31/10:30am 30.0 - - - - N 9 - 5 - 1010.0 - -
31/10:00am 29.8 - - - - N 9 - 5 - 1010.0 1010.3 -
31/09:30am 29.0 - - - - W 6 - 3 - 1010.0 - -
31/09:00am 29.1 - - - - S 7 - 4 - 1010.0 1010.7 -
31/08:30am 29.0 - - - - S 7 - 4 - 1010.0 - -
31/08:00am 28.5 - - - - S 7 - 4 - 1010.0 1010.8 -
31/07:30am 29.0 - - - - S 7 - 4 - 1010.0 - -
31/07:00am 28.9 - - - - S 4 - 2 - 1010.0 1010.4 -
31/06:30am 29.0 - - - - SSE 0 0 0 0 1010.0 - -
31/06:00am 28.5 - - - - NNE 0 0 0 0 1009.0 1009.5 -
31/05:30am 28.0 - - - - CALM 0 - 0 - 1009.0 - -
31/05:00am 28.2 - - - - CALM 0 - 0 - 1008.0 1008.8 -
31/04:30am 28.0 - - - - WSW 7 - 4 - 1008.0 - -
31/04:00am 28.4 - - - - WSW 11 - 6 - 1008.0 1007.9 -
31/03:30am 28.0 - - - - WSW 19 - 10 - 1007.0 - -
31/03:00am 28.4 - - - - WSW 22 - 12 - 1007.0 1007.2 -
31/02:30am 29.0 - - - - WSW 24 - 13 - 1007.0 - -
31/02:00am 28.6 - - - - WSW 26 - 14 - 1007.0 1007.0 -
31/01:30am 29.0 - - - - WSW 22 - 12 - 1007.0 - -
31/01:00am 28.6 - - - - W 24 - 13 - 1007.0 1007.3 -
31/12:30am 29.0 - - - - WSW 26 - 14 - 1007.0 - -
31/12:00am 28.6 - - - - W 26 28 14 15 1007.0 1007.7 -
 
Date/Time
WST
Temp
°C
App
Temp
°C
Dew
Point
Rel
Hum
%
Delta-T
°C
Wind Press
QNH
hPa
Press
MSL
hPa
Rain
since 9 am
mm
Dir
 
Spd
km/h
Gust
km/h
Spd
kts
Gust
kts
30/11:30pm 29.0 - - - - W 28 - 15 - 1008.0 - -
30/11:00pm 28.6 - - - - W 26 - 14 - 1008.0 1008.4 -
30/10:30pm 29.0 - - - - WSW 26 - 14 - 1008.0 - -
30/10:00pm 28.7 - - - - W 28 - 15 - 1009.0 1009.0 -
30/09:30pm 29.0 - - - - W 28 - 15 - 1009.0 - -
30/09:00pm 28.9 - - - - W 28 - 15 - 1009.0 1009.2 -
30/08:30pm 29.0 - - - - W 26 - 14 - 1009.0 - -
30/08:00pm 28.8 - - - - W 26 - 14 - 1009.0 1009.0 -
30/07:30pm 29.0 - - - - W 26 - 14 - 1008.0 - -
30/07:00pm 29.1 - - - - W 26 - 14 - 1008.0 1008.5 -
30/06:30pm 29.0 - - - - W 24 - 13 - 1008.0 - -
30/06:00pm 29.0 - - - - W 24 26 13 14 1008.0 1008.1 -
30/05:30pm 29.0 - - - - W 22 - 12 - 1008.0 - -
30/05:00pm 29.0 - - - - W 22 - 12 - 1007.0 1007.7 -
30/04:30pm 29.0 - - - - W 20 - 11 - 1007.0 - -
30/04:00pm 29.2 - - - - W 20 - 11 - 1007.0 1007.3 -
30/03:30pm 29.0 - - - - W 20 - 11 - 1007.0 - -
30/03:00pm 29.1 - - - - W 20 - 11 - 1007.0 1007.6 -
30/02:30pm 29.0 - - - - W 19 - 10 - 1008.0 - -
30/02:00pm 29.2 - - - - W 19 - 10 - 1008.0 1008.4 -
30/01:30pm 29.0 - - - - W 19 - 10 - 1008.0 - -
30/01:00pm 29.3 - - - - W 17 - 9 - 1008.0 1008.8 -
30/12:30pm 29.0 - - - - W 17 - 9 - 1009.0 - -
30/12:00pm 29.1 - - - - W 17 - 9 - 1009.0 1009.5 -
30/11:30am 29.0 - - - - W 17 - 9 - 1009.0 - -
30/11:00am 29.3 - - - - W 15 - 8 - 1010.0 1010.1 -
30/10:30am 29.0 - - - - W 15 - 8 - 1010.0 - -
30/10:00am 29.6 - - - - W 13 - 7 - 1010.0 1010.5 -
30/09:30am 29.0 - - - - W 13 - 7 - 1011.0 - -
30/09:00am 28.8 - - - - W 15 - 8 - 1011.0 1011.0 -
30/08:30am 29.0 - - - - W 13 - 7 - 1011.0 - -
30/08:00am 28.5 - - - - W 13 - 7 - 1011.0 1011.0 -
30/07:30am 28.0 - - - - WSW 13 - 7 - 1010.0 - -
30/07:00am 28.2 - - - - W 13 - 7 - 1010.0 1010.5 -
30/06:30am 28.0 - - - - W 13 - 7 - 1010.0 - -
30/06:00am 27.9 - - - - W 15 - 8 - 1009.0 1009.8 -
30/05:30am 28.0 - - - - W 15 - 8 - 1009.0 - -
30/05:00am 27.8 - - - - WSW 13 - 7 - 1009.0 1009.3 -
30/04:30am 28.0 - - - - WSW 13 - 7 - 1009.0 - -
30/04:00am 27.6 - - - - W 11 - 6 - 1009.0 1009.1 -
30/03:30am 28.0 - - - - W 7 - 4 - 1009.0 - -
30/03:00am 27.5 - - - - WSW 7 - 4 - 1009.0 1009.1 -
30/02:30am 28.0 - - - - W 7 - 4 - 1009.0 - -
30/02:00am 27.6 - - - - W 7 - 4 - 1009.0 1009.0 -
30/01:30am 28.0 - - - - CALM 0 - 0 - 1009.0 - -
30/01:00am 27.5 - - - - WNW 6 - 3 - 1009.0 1009.4 -
30/12:30am 28.0 - - - - W 6 - 3 - 1009.0 - -
30/12:00am 27.7 - - - - W 6 - 3 - 1010.0 1010.0 -
 
Date/Time
WST
Temp
°C
App
Temp
°C
Dew
Point
Rel
Hum
%
Delta-T
°C
Wind Press
QNH
hPa
Press
MSL
hPa
Rain
since 9 am
mm
Dir
 
Spd
km/h
Gust
km/h
Spd
kts
Gust
kts
29/11:30pm 28.0 - - - - SW 13 - 7 - 1010.0 - -
29/11:00pm 27.8 - - - - SW 15 - 8 - 1010.0 1010.3 -
29/10:30pm 28.0 - - - - SW 19 - 10 - 1010.0 - -
29/10:00pm 27.9 - - - - SSW 20 - 11 - 1010.0 1010.8 -
29/09:30pm 28.0 - - - - SW 24 - 13 - 1010.0 - -
29/09:00pm 28.0 - - - - SW 22 - 12 - 1010.0 1010.6 -
29/08:30pm 28.0 - - - - SW 24 - 13 - 1010.0 - -
29/08:00pm 28.1 - - - - SW 22 - 12 - 1010.0 1010.5 -
29/07:30pm 28.0 - - - - SW 26 - 14 - 1010.0 - -
29/07:00pm 28.2 - - - - SW 28 - 15 - 1010.0 1010.1 -
29/06:30pm 28.0 - - - - SW 26 - 14 - 1010.0 - -
29/06:00pm 28.6 - - - - SW 26 - 14 - 1010.0 1009.9 -
29/05:30pm 29.0 - - - - SW 26 - 14 - 1009.0 - -
29/05:00pm 28.8 - - - - SW 26 - 14 - 1009.0 1009.4 -
29/04:30pm 29.0 - - - - SW 24 - 13 - 1009.0 - -
29/04:00pm 28.8 - - - - SW 24 - 13 - 1009.0 1009.5 -
29/03:30pm 29.0 - - - - WSW 22 - 12 - 1009.0 - -
29/03:00pm 29.1 - - - - WSW 20 - 11 - 1009.0 1009.8 -
29/02:30pm 29.0 - - - - SW 20 - 11 - 1010.0 - -
29/02:00pm 29.1 - - - - SW 19 - 10 - 1010.0 1010.4 -
29/01:30pm 29.0 - - - - WSW 15 - 8 - 1010.0 - -
29/01:00pm 29.6 - - - - WSW 13 - 7 - 1011.0 1011.0 -
29/12:30pm 30.0 - - - - W 9 - 5 - 1011.0 - -
29/12:00pm 29.9 - - - - WNW 9 - 5 - 1012.0 1012.0 -
29/11:30am 30.0 - - - - W 7 - 4 - 1012.0 - -
29/11:00am 29.2 - - - - W 9 - 5 - 1012.0 1012.8 -
29/10:30am 30.0 - - - - W 9 - 5 - 1013.0 - -
29/10:00am 29.3 - - - - WSW 9 - 5 - 1013.0 1013.2 -
29/09:30am 29.0 - - - - WSW 9 - 5 - 1013.0 - -
29/09:00am 29.0 - - - - WSW 7 - 4 - 1013.0 1013.3 -
29/08:30am 28.0 - - - - WNW 9 - 5 - 1013.0 - -
29/08:00am 28.1 - - - - W 11 - 6 - 1013.0 1013.1 -
29/07:30am 28.0 - - - - W 9 - 5 - 1013.0 - -
29/07:00am 27.8 - - - - W 11 - 6 - 1012.0 1012.6 -
29/06:30am 28.0 - - - - W 9 - 5 - 1012.0 - -
29/06:00am 27.4 - - - - W 13 - 7 - 1011.0 1011.6 -
29/05:30am 28.0 - - - - SW 13 - 7 - 1011.0 - -
29/05:00am 27.4 - - - - SW 13 - 7 - 1011.0 1011.2 -
29/04:30am 28.0 - - - - SW 15 - 8 - 1011.0 - -
29/04:00am 27.5 - - - - SSW 19 - 10 - 1010.0 1010.5 -
29/03:30am 28.0 - - - - SSW 17 - 9 - 1010.0 - -
29/03:00am 27.6 - - - - SW 17 - 9 - 1010.0 1010.1 -
29/02:30am 28.0 - - - - SW 17 - 9 - 1010.0 - -
29/02:00am 27.8 - - - - SW 15 - 8 - 1009.0 1009.8 -
29/01:30am 28.0 - - - - SW 13 - 7 - 1010.0 - -
29/01:00am 27.8 - - - - SW 13 - 7 - 1010.0 1010.4 -
29/12:30am 28.0 - - - - SW 13 - 7 - 1010.0 - -
29/12:00am 27.7 - - - - WSW 13 - 7 - 1010.0 1010.7 -
 
Date/Time
WST
Temp
°C
App
Temp
°C
Dew
Point
Rel
Hum
%
Delta-T
°C
Wind Press
QNH
hPa
Press
MSL
hPa
Rain
since 9 am
mm
Dir
 
Spd
km/h
Gust
km/h
Spd
kts
Gust
kts
28/11:30pm 28.0 - - - - WSW 11 - 6 - 1010.0 - -
28/11:00pm 27.9 - - - - SW 15 - 8 - 1010.0 1010.7 -
28/10:30pm 28.0 - - - - SW 13 - 7 - 1011.0 - -
28/10:00pm 27.9 - - - - SW 15 - 8 - 1011.0 1010.9 -
28/09:30pm 28.0 - - - - SW 13 - 7 - 1011.0 - -
28/09:00pm 28.1 - - - - SW 17 - 9 - 1011.0 1010.9 -
28/08:30pm 28.0 - - - - SW 17 - 9 - 1010.0 - -
28/08:00pm 28.1 - - - - SW 17 - 9 - 1010.0 1010.6 -
28/07:30pm 28.0 - - - - SW 19 - 10 - 1010.0 - -
28/07:00pm 28.3 - - - - SW 20 - 11 - 1010.0 1009.9 -
28/06:30pm 28.0 - - - - SW 20 - 11 - 1009.0 - -
28/06:00pm 28.3 - - - - SW 22 - 12 - 1009.0 1009.3 -
28/05:30pm 28.0 - - - - SW 20 - 11 - 1009.0 - -
28/05:00pm 28.4 - - - - SSW 20 - 11 - 1009.0 1009.0 -
28/04:30pm 29.0 - - - - SSW 22 - 12 - 1008.0 - -
28/04:00pm 28.6 - - - - SSW 22 - 12 - 1008.0 1008.6 -
28/03:30pm 29.0 - - - - SW 22 - 12 - 1008.0 - -
28/03:00pm 28.6 - - - - SW 22 - 12 - 1009.0 1008.9 -
28/02:30pm 29.0 - - - - SW 19 - 10 - 1009.0 - -

Other Formats:

Comma delimited format used in spreadsheet applications
http://www.bom.gov.au/fwo/IDW60801/IDW60801.94103.axf

JavaScript Object Notation format (JSON) in row-major order
http://www.bom.gov.au/fwo/IDW60801/IDW60801.94103.json